This is the latest recevied weather packets stored in our database for station/object KLLQ. If no packets are shown the sender has not sent any weather packets the latest 10 day(s).
| Time | Temp. | Humidity | Pressure | Rain* | Wind** | Luminosity | Snow |
|---|---|---|---|---|---|---|---|
| 1778076213 | 11.67° C | 100% | 1012.9 hPa | - | - | - | - |
| 1778075613 | 12.78° C | 93% | 1011.9 hPa | - | - | - | - |
| 1778075012 | 12.78° C | 93% | 1011.9 hPa | - | - | - | - |
| 1778074410 | 12.78° C | 93% | 1011.9 hPa | - | - | - | - |
| 1778073812 | 12.78° C | 93% | 1011.9 hPa | - | - | - | - |
| 1778073215 | 12.78° C | 93% | 1011.9 hPa | - | - | - | - |
| 1778072615 | 12.78° C | 93% | 1011.9 hPa | - | - | - | - |
| 1778071414 | 12.78° C | 100% | 1011.9 hPa | - | - | - | - |
| 1778070812 | 13.89° C | 93% | 1011.5 hPa | - | - | - | - |
| 1778070215 | 13.89° C | 93% | 1010.8 hPa | - | - | - | - |
| 1778069613 | 13.89° C | 93% | 1010.8 hPa | - | - | - | - |
| 1778069013 | 13.89° C | 93% | 1010.8 hPa | - | - | - | - |
| 1778068414 | 15.56° C | 93% | 1010.5 hPa | - | - | - | - |
| 1778067813 | 15.56° C | 93% | 1010.5 hPa | - | - | - | - |
| 1778067211 | 15.56° C | 93% | 1010.5 hPa | - | - | - | - |
| 1778066617 | 15.56° C | 93% | 1010.5 hPa | - | - | - | - |
| 1778066015 | 15.56° C | 93% | 1010.5 hPa | - | - | - | - |
| 1778065413 | 15.56° C | 93% | 1010.5 hPa | - | - | - | - |
| 1778064813 | 17.78° C | 88% | 1010.2 hPa | - | - | - | - |
| 1778064216 | 22.78° C | 94% | 1009.1 hPa | - | - | - | - |
| 1778063613 | 22.78° C | 94% | 1009.1 hPa | - | - | - | - |
| 1778063016 | 22.78° C | 94% | 1009.1 hPa | - | - | - | - |
| 1778062414 | 22.78° C | 94% | 1009.1 hPa | - | - | - | - |
| 1778061815 | 22.78° C | 94% | 1009.1 hPa | - | - | - | - |
| 1778061216 | 22.78° C | 88% | 1008.1 hPa | - | - | - | - |
* Rain since midnight (hover to see other rain measurements)
** Current wind speed in m/s (hover to see current wind gust speed)